West Hollywood, California
Current Conditions -  °F | °C
As of 1:51 PM on Wednesday 26 Nov 2014 (Local Time) from KSMO Reporting Station
Clear Clear  
Wind Chill: 78°   Ceiling: Unl
Heat Index: 78°   Visibility: 10mi
Dew Point: 25°   Wind: 6mph
Humidity: 14%   Direction: 230°SW
Pressure: 30.14"   Gusts: NA
Location:  34.09°N, 118.37°W
Report Text: KSMO 262151Z 23005KT 10SM CLR 26/M04 A3014 RMK AO2 SLP206 T02561039
Loading
Personal Weather Stations






























Interactive Weather Map New forecast layout! Learn more

10-Day Weather Forecast

Advertisements
Track Severe Weather on mobile